createdAt,value
2023-04-13T00:01:11.747Z,1.30
2023-04-13T00:03:39.717Z,1.23
2023-04-13T00:06:11.106Z,1.30
2023-04-13T00:08:38.781Z,1.10
2023-04-13T00:11:07.849Z,1.37
2023-04-13T00:13:41.560Z,0.90
2023-04-13T00:16:13.925Z,0.70
2023-04-13T00:18:41.127Z,0.90
2023-04-13T00:21:08.524Z,0.60
2023-04-13T00:23:36.224Z,0.70
2023-04-13T00:26:03.795Z,0.80
2023-04-13T00:28:30.816Z,0.70
2023-04-13T00:30:59.532Z,0.60
2023-04-13T00:33:26.681Z,0.60
2023-04-13T00:35:53.714Z,0.60
2023-04-13T00:38:20.776Z,0.70
2023-04-13T00:40:47.712Z,0.60
2023-04-13T00:43:15.073Z,0.80
2023-04-13T00:45:43.990Z,0.60
2023-04-13T00:48:11.247Z,0.63
2023-04-13T00:50:39.399Z,0.70
2023-04-13T00:53:10.605Z,0.60
2023-04-13T00:55:39.555Z,0.77
2023-04-13T00:58:07.984Z,0.70
2023-04-13T01:00:39.035Z,0.70
2023-04-13T01:03:06.483Z,0.70
2023-04-13T01:05:51.825Z,0.70
2023-04-13T01:08:32.216Z,0.70
2023-04-13T01:11:02.096Z,0.70
2023-04-13T01:13:34.748Z,0.80
2023-04-13T01:16:25.536Z,0.70
2023-04-13T01:18:57.005Z,0.70
2023-04-13T01:21:27.756Z,0.67
2023-04-13T01:24:45.244Z,0.60
2023-04-13T01:27:42.373Z,0.80
2023-04-13T01:34:36.062Z,0.80
2023-04-13T01:37:07.918Z,0.60
2023-04-13T01:39:40.193Z,0.70
2023-04-13T01:42:25.448Z,0.70
2023-04-13T01:44:52.968Z,0.80
2023-04-13T01:47:24.088Z,0.80
2023-04-13T01:50:45.194Z,0.80
2023-04-13T01:53:24.926Z,0.70
2023-04-13T01:55:53.692Z,0.90
2023-04-13T01:58:23.726Z,0.70
2023-04-13T02:00:58.259Z,0.70
2023-04-13T02:03:27.081Z,0.60
2023-04-13T02:05:54.674Z,0.70
2023-04-13T02:08:22.143Z,0.90
2023-04-13T02:10:49.596Z,0.90
2023-04-13T02:13:16.979Z,0.90
2023-04-13T02:15:45.021Z,0.83
2023-04-13T02:18:14.197Z,0.77
2023-04-13T02:20:45.068Z,0.87
2023-04-13T02:23:16.277Z,0.93
2023-04-13T02:25:47.894Z,0.90
2023-04-13T02:28:18.360Z,0.80
2023-04-13T02:30:47.252Z,0.80
2023-04-13T02:33:14.682Z,0.90
2023-04-13T02:35:42.527Z,0.70
2023-04-13T02:38:11.762Z,0.90
2023-04-13T02:40:44.214Z,0.80
2023-04-13T02:43:12.579Z,0.80
2023-04-13T02:45:42.496Z,0.97
2023-04-13T02:48:13.734Z,0.80
2023-04-13T02:50:41.165Z,0.80
2023-04-13T02:53:15.845Z,0.80
2023-04-13T02:55:46.197Z,0.90
2023-04-13T02:58:14.011Z,1.00
2023-04-13T03:00:46.069Z,0.70
2023-04-13T03:03:17.263Z,0.80
2023-04-13T03:05:49.778Z,0.80
2023-04-13T03:08:21.419Z,0.80
2023-04-13T03:11:09.723Z,0.77
2023-04-13T03:13:41.847Z,0.80
2023-04-13T03:16:12.765Z,0.77
2023-04-13T03:18:40.604Z,0.90
2023-04-13T03:21:09.717Z,1.00
2023-04-13T03:23:44.795Z,0.97
2023-04-13T03:26:13.797Z,0.80
2023-04-13T03:28:41.349Z,0.70
2023-04-13T03:31:09.504Z,0.83
2023-04-13T03:41:46.354Z,0.80
2023-04-13T03:44:13.624Z,0.90
2023-04-13T03:46:41.486Z,0.80
2023-04-13T03:49:24.828Z,0.80
2023-04-13T03:51:52.382Z,0.83
2023-04-13T03:54:20.242Z,0.70
2023-04-13T03:56:47.869Z,0.93
2023-04-13T03:59:14.921Z,1.00
2023-04-13T04:01:41.899Z,0.80
2023-04-13T04:04:09.144Z,0.90
2023-04-13T04:06:37.183Z,0.87
2023-04-13T04:09:12.398Z,0.97
2023-04-13T04:11:46.294Z,0.70
2023-04-13T04:14:16.153Z,0.80
2023-04-13T04:16:53.008Z,0.90
2023-04-13T04:19:20.454Z,0.80
2023-04-13T04:21:49.915Z,0.80
2023-04-13T04:24:27.909Z,0.83
2023-04-13T04:26:59.443Z,0.80
2023-04-13T04:29:36.021Z,0.70
2023-04-13T04:32:18.649Z,0.90
2023-04-13T04:34:47.070Z,0.80
2023-04-13T04:37:21.372Z,0.80
2023-04-13T04:40:09.775Z,0.80
2023-04-13T04:42:38.801Z,0.90
2023-04-13T04:45:14.213Z,0.90
2023-04-13T04:47:44.874Z,0.87
2023-04-13T04:50:19.132Z,0.90
2023-04-13T04:52:51.273Z,0.80
2023-04-13T04:55:22.054Z,1.10
2023-04-13T04:57:49.944Z,0.80
2023-04-13T05:00:18.888Z,0.90
2023-04-13T05:03:08.390Z,0.90
2023-04-13T05:05:38.945Z,0.87
2023-04-13T05:08:11.726Z,0.90
2023-04-13T05:10:46.176Z,0.90
2023-04-13T05:13:13.392Z,0.90
2023-04-13T05:15:43.865Z,0.90
2023-04-13T05:18:13.260Z,1.00
2023-04-13T05:20:40.369Z,0.97
2023-04-13T05:23:09.783Z,1.00
2023-04-13T05:25:43.494Z,0.90
2023-04-13T05:28:17.637Z,0.97
2023-04-13T05:30:45.896Z,1.10
2023-04-13T05:33:13.456Z,0.83
2023-04-13T05:35:42.238Z,1.10
2023-04-13T05:38:10.610Z,1.20
2023-04-13T05:40:38.264Z,1.03
2023-04-13T05:43:05.692Z,1.20
2023-04-13T05:45:37.796Z,1.00
2023-04-13T05:48:09.206Z,0.90
2023-04-13T05:50:36.248Z,1.00
2023-04-13T05:53:05.807Z,0.90
2023-04-13T05:55:44.793Z,1.10
2023-04-13T05:58:12.579Z,1.00
2023-04-13T06:00:39.997Z,1.00
2023-04-13T06:03:12.119Z,1.10
2023-04-13T06:05:39.743Z,0.90
2023-04-13T06:08:10.458Z,1.10
2023-04-13T06:10:38.896Z,1.00
2023-04-13T06:13:06.006Z,1.00
2023-04-13T06:15:34.094Z,0.87
2023-04-13T06:18:01.809Z,1.03
2023-04-13T06:20:29.330Z,1.00
2023-04-13T06:22:57.106Z,1.20
2023-04-13T06:25:24.582Z,1.03
2023-04-13T06:27:52.934Z,1.17
2023-04-13T06:30:21.773Z,1.20
2023-04-13T06:32:53.103Z,1.10
2023-04-13T06:35:23.208Z,0.90
2023-04-13T06:37:51.787Z,1.00
2023-04-13T06:40:25.997Z,0.80
2023-04-13T06:43:03.952Z,0.90
2023-04-13T06:45:37.849Z,1.00
2023-04-13T06:48:09.113Z,0.90
2023-04-13T06:50:38.351Z,0.90
2023-04-13T06:53:07.206Z,0.90
2023-04-13T06:55:35.050Z,0.90
2023-04-13T06:58:02.128Z,1.00
2023-04-13T07:00:30.641Z,0.80
2023-04-13T07:03:00.245Z,0.90
2023-04-13T07:05:28.169Z,0.80
2023-04-13T07:08:01.120Z,0.83
2023-04-13T07:10:28.760Z,0.80
2023-04-13T07:12:59.591Z,0.90
2023-04-13T07:15:29.668Z,0.90
2023-04-13T07:17:56.807Z,0.80
2023-04-13T07:20:23.999Z,0.90
2023-04-13T07:22:51.234Z,0.80
2023-04-13T07:25:18.438Z,0.90
2023-04-13T07:27:46.348Z,0.80
2023-04-13T07:30:13.877Z,0.80
2023-04-13T07:32:48.196Z,1.00
2023-04-13T07:35:16.237Z,0.90
2023-04-13T07:37:46.903Z,0.90
2023-04-13T07:40:14.094Z,1.00
2023-04-13T07:42:45.412Z,0.87
2023-04-13T07:45:13.924Z,0.83
2023-04-13T07:47:41.479Z,0.90
2023-04-13T07:50:09.768Z,1.00
2023-04-13T07:52:37.909Z,0.90
2023-04-13T07:55:05.914Z,0.97
2023-04-13T07:57:36.721Z,0.90
2023-04-13T08:00:06.541Z,0.93
2023-04-13T08:02:41.678Z,0.73
2023-04-13T08:05:12.883Z,0.80
2023-04-13T08:07:41.722Z,0.97
2023-04-13T08:10:09.508Z,1.10
2023-04-13T08:12:36.763Z,0.87
2023-04-13T08:15:04.429Z,1.10
2023-04-13T08:17:31.890Z,0.90
2023-04-13T08:20:00.804Z,1.00
2023-04-13T08:22:28.434Z,0.77
2023-04-13T08:24:56.588Z,0.90
2023-04-13T08:27:25.010Z,0.90
2023-04-13T08:30:02.117Z,0.40
2023-04-13T08:32:37.217Z,0.80
2023-04-13T08:35:06.935Z,0.80
2023-04-13T08:37:34.801Z,0.90
2023-04-13T08:40:07.389Z,1.00
2023-04-13T08:42:35.021Z,0.90
2023-04-13T08:45:03.879Z,0.80
2023-04-13T08:47:31.727Z,0.70
2023-04-13T08:50:00.462Z,0.90
2023-04-13T08:52:37.270Z,0.87
2023-04-13T08:55:06.018Z,0.63
2023-04-13T08:57:36.027Z,1.10
2023-04-13T09:00:15.671Z,0.70
2023-04-13T09:03:00.367Z,0.90
2023-04-13T09:05:38.162Z,0.90
2023-04-13T09:08:08.030Z,0.90
2023-04-13T09:10:37.548Z,0.90
2023-04-13T09:13:05.944Z,0.80
2023-04-13T09:15:33.425Z,0.70
2023-04-13T09:18:23.561Z,0.83
2023-04-13T09:21:01.555Z,0.80
2023-04-13T09:23:28.594Z,0.90
2023-04-13T09:26:08.976Z,0.87
2023-04-13T09:28:47.325Z,1.00
2023-04-13T09:31:15.690Z,0.90
2023-04-13T09:33:50.625Z,0.90
2023-04-13T09:36:19.813Z,0.97
2023-04-13T09:38:57.521Z,0.80
2023-04-13T09:41:34.769Z,0.90
2023-04-13T09:44:03.241Z,0.80
2023-04-13T09:46:30.547Z,0.70
2023-04-13T09:49:04.964Z,0.80
2023-04-13T09:51:44.531Z,0.80
2023-04-13T09:54:12.047Z,0.87
2023-04-13T09:56:47.071Z,1.00
2023-04-13T09:59:14.779Z,0.90
2023-04-13T10:01:41.947Z,0.80
2023-04-13T10:04:09.311Z,1.47
2023-04-13T10:06:40.542Z,1.20
2023-04-13T10:09:08.105Z,0.90
2023-04-13T10:11:42.157Z,1.20
2023-04-13T10:14:18.040Z,5.40
2023-04-13T10:17:13.018Z,2.67
2023-04-13T10:19:51.835Z,1.20
2023-04-13T10:22:22.916Z,1.10
2023-04-13T10:24:52.497Z,1.17
2023-04-13T10:27:21.985Z,1.00
2023-04-13T10:29:50.184Z,0.80
2023-04-13T10:32:25.063Z,1.17
2023-04-13T10:34:53.237Z,0.90
2023-04-13T10:37:23.229Z,1.00
2023-04-13T10:40:09.048Z,0.70
2023-04-13T10:42:52.494Z,1.17
2023-04-13T10:45:26.719Z,1.00
2023-04-13T10:47:54.917Z,1.10
2023-04-13T10:50:27.724Z,1.20
2023-04-13T10:52:57.480Z,0.90
2023-04-13T10:55:27.849Z,1.07
2023-04-13T10:57:56.576Z,1.00
2023-04-13T11:00:38.350Z,0.93
2023-04-13T11:03:15.713Z,0.70
2023-04-13T11:05:43.812Z,0.80
2023-04-13T11:08:21.000Z,1.17
2023-04-13T11:10:56.004Z,1.03
2023-04-13T11:13:29.090Z,0.90
2023-04-13T11:16:03.658Z,0.90
2023-04-13T11:18:31.066Z,1.20
2023-04-13T11:20:58.235Z,1.00
2023-04-13T11:23:25.443Z,1.00
2023-04-13T11:26:04.957Z,1.50
2023-04-13T11:28:42.496Z,0.90
2023-04-13T11:31:11.705Z,0.90
2023-04-13T11:33:40.577Z,1.10
2023-04-13T11:36:09.836Z,1.07
2023-04-13T11:38:40.851Z,1.00
2023-04-13T11:41:16.534Z,0.97
2023-04-13T11:43:48.892Z,1.00
2023-04-13T11:46:24.794Z,1.10
2023-04-13T11:48:55.714Z,0.90
2023-04-13T11:51:23.895Z,1.10
2023-04-13T11:53:51.490Z,1.20
2023-04-13T11:56:18.542Z,1.00
2023-04-13T11:58:51.519Z,0.80
2023-04-13T12:01:26.914Z,0.90
2023-04-13T12:04:15.080Z,0.90
2023-04-13T12:06:49.935Z,1.23
2023-04-13T12:09:20.314Z,1.27
2023-04-13T12:12:08.307Z,1.10
2023-04-13T12:14:57.139Z,1.00
2023-04-13T12:17:41.435Z,1.17
2023-04-13T12:20:16.550Z,1.20
2023-04-13T12:25:19.756Z,1.00
2023-04-13T12:27:51.753Z,1.13
2023-04-13T12:30:22.908Z,1.20
2023-04-13T12:32:54.930Z,1.20
2023-04-13T12:35:22.277Z,1.20
2023-04-13T12:37:50.558Z,1.33
2023-04-13T12:40:18.664Z,1.00
2023-04-13T12:42:47.089Z,0.97
2023-04-13T12:45:16.179Z,1.10
2023-04-13T12:47:43.368Z,1.30
2023-04-13T12:50:12.111Z,1.10
2023-04-13T12:52:41.903Z,1.40
2023-04-13T12:55:09.774Z,1.10
2023-04-13T12:57:36.816Z,1.27
2023-04-13T13:00:10.037Z,1.10
2023-04-13T13:02:38.283Z,1.20
2023-04-13T13:05:05.867Z,1.10
2023-04-13T13:07:33.014Z,1.10
2023-04-13T13:10:01.928Z,1.00
2023-04-13T13:12:30.283Z,1.10
2023-04-13T13:14:58.625Z,1.10
2023-04-13T13:17:28.513Z,1.20
2023-04-13T13:19:59.119Z,1.07
2023-04-13T13:22:29.132Z,1.10
2023-04-13T13:24:56.964Z,1.10
2023-04-13T13:29:53.798Z,1.30
2023-04-13T13:32:20.960Z,1.10
2023-04-13T13:34:48.029Z,1.03
2023-04-13T13:37:14.922Z,1.00
2023-04-13T13:39:42.609Z,1.07
2023-04-13T13:42:09.683Z,1.07
2023-04-13T13:44:37.379Z,1.00
2023-04-13T13:47:04.459Z,1.03
2023-04-13T13:49:31.675Z,1.03
2023-04-13T13:52:04.903Z,1.03
2023-04-13T13:54:40.272Z,1.00
2023-04-13T13:57:07.367Z,1.10
2023-04-13T13:59:34.435Z,1.10
2023-04-13T14:02:01.953Z,0.93
2023-04-13T14:04:29.076Z,0.87
2023-04-13T14:06:56.169Z,1.00
2023-04-13T14:09:23.568Z,1.10
2023-04-13T14:11:51.005Z,1.23
2023-04-13T14:14:21.641Z,1.07
2023-04-13T14:16:49.193Z,0.90
2023-04-13T14:19:18.160Z,1.07
2023-04-13T14:21:45.377Z,0.90
2023-04-13T14:24:12.453Z,1.00
2023-04-13T14:26:39.898Z,1.30
2023-04-13T14:29:08.968Z,0.93
2023-04-13T14:31:36.018Z,0.90
2023-04-13T14:34:03.037Z,1.10
2023-04-13T14:36:30.103Z,0.90
2023-04-13T14:39:00.306Z,0.90
2023-04-13T14:41:27.630Z,0.80
2023-04-13T14:43:54.705Z,0.90
2023-04-13T14:46:21.831Z,0.90
2023-04-13T14:48:48.837Z,0.80
2023-04-13T14:51:17.225Z,0.90
2023-04-13T14:53:44.486Z,0.80
2023-04-13T14:56:11.757Z,1.20
2023-04-13T14:58:38.924Z,1.00
2023-04-13T15:01:19.316Z,1.00
2023-04-13T15:03:47.202Z,0.90
2023-04-13T15:06:14.926Z,1.00
2023-04-13T15:08:41.915Z,1.00
2023-04-13T15:11:09.375Z,0.90
2023-04-13T15:13:38.058Z,0.80
2023-04-13T15:16:06.865Z,1.17
2023-04-13T15:18:34.050Z,0.90
2023-04-13T15:21:04.836Z,1.03
2023-04-13T15:23:33.638Z,1.03
2023-04-13T15:26:03.265Z,0.90
2023-04-13T15:28:30.804Z,0.90
2023-04-13T15:30:57.744Z,1.00
2023-04-13T15:33:24.857Z,1.10
2023-04-13T15:35:52.582Z,1.00
2023-04-13T15:38:19.573Z,1.00
2023-04-13T15:40:47.221Z,1.10
2023-04-13T15:43:14.366Z,0.90
2023-04-13T15:45:41.380Z,0.90
2023-04-13T15:48:08.573Z,1.13
2023-04-13T15:50:35.775Z,1.70
2023-04-13T15:53:02.792Z,5.00
2023-04-13T15:55:29.863Z,1.70
2023-04-13T15:57:57.214Z,10.53
2023-04-13T16:00:26.005Z,11.63
2023-04-13T16:02:53.209Z,5.00
2023-04-13T16:05:20.695Z,7.33
2023-04-13T16:07:48.000Z,7.10
2023-04-13T16:10:16.381Z,14.00
2023-04-13T16:12:47.073Z,13.80
2023-04-13T16:15:14.586Z,20.33
2023-04-13T16:17:43.644Z,21.57
2023-04-13T16:20:14.237Z,4.83
2023-04-13T16:22:42.317Z,4.93
2023-04-13T16:25:12.419Z,1.77
2023-04-13T16:27:40.142Z,2.00
2023-04-13T16:30:08.441Z,1.70
2023-04-13T16:32:35.591Z,1.80
2023-04-13T16:35:02.861Z,1.70
2023-04-13T16:37:29.823Z,1.90
2023-04-13T16:39:56.902Z,1.57
2023-04-13T16:42:23.925Z,2.27
2023-04-13T16:44:51.333Z,1.90
2023-04-13T16:47:18.746Z,2.20
2023-04-13T16:49:45.767Z,2.57
2023-04-13T16:52:13.120Z,2.07
2023-04-13T16:54:44.015Z,1.90
2023-04-13T16:57:11.992Z,2.10
2023-04-13T16:59:39.154Z,1.67
2023-04-13T17:02:11.136Z,1.20
2023-04-13T17:04:42.538Z,1.30
2023-04-13T17:07:09.580Z,1.50
2023-04-13T17:09:36.751Z,1.57
2023-04-13T17:12:03.866Z,1.30
2023-04-13T17:14:31.926Z,1.43
2023-04-13T17:16:58.842Z,1.40
2023-04-13T17:19:25.959Z,1.40
2023-04-13T17:21:52.918Z,1.50
2023-04-13T17:24:20.294Z,1.20
2023-04-13T17:26:47.374Z,1.10
2023-04-13T17:29:14.376Z,1.20
2023-04-13T17:31:41.471Z,1.20
2023-04-13T17:34:09.532Z,1.17
2023-04-13T17:36:36.512Z,1.20
2023-04-13T17:39:05.701Z,1.27
2023-04-13T17:41:34.207Z,1.00
2023-04-13T17:44:02.060Z,1.00
2023-04-13T17:46:30.035Z,1.00
2023-04-13T17:48:57.440Z,1.20
2023-04-13T17:51:25.155Z,1.10
2023-04-13T17:53:52.246Z,1.20
2023-04-13T17:56:20.016Z,1.00
2023-04-13T17:58:47.156Z,1.10
2023-04-13T18:01:14.333Z,1.00
2023-04-13T18:03:41.611Z,0.90
2023-04-13T18:06:08.807Z,1.00
2023-04-13T18:08:35.813Z,1.00
2023-04-13T18:11:02.799Z,1.10
2023-04-13T18:13:31.499Z,1.20
2023-04-13T18:15:58.685Z,1.20
2023-04-13T18:18:26.344Z,0.90
2023-04-13T18:20:53.882Z,1.00
2023-04-13T18:23:21.808Z,1.10
2023-04-13T18:25:50.137Z,1.10
2023-04-13T18:28:17.716Z,1.13
2023-04-13T18:30:45.445Z,1.07
2023-04-13T18:33:12.564Z,0.93
2023-04-13T18:35:46.271Z,1.00
2023-04-13T18:38:13.337Z,1.00
2023-04-13T18:40:40.452Z,1.10
2023-04-13T18:43:07.524Z,1.00
2023-04-13T18:45:34.578Z,1.00
2023-04-13T18:48:01.969Z,0.90
2023-04-13T18:50:29.434Z,1.00
2023-04-13T18:52:56.698Z,1.10
2023-04-13T18:55:25.712Z,1.10
2023-04-13T18:57:52.790Z,1.00
2023-04-13T19:00:20.570Z,0.97
2023-04-13T19:02:49.499Z,1.10
2023-04-13T19:05:17.007Z,1.00
2023-04-13T19:07:54.061Z,0.90
2023-04-13T19:10:22.641Z,0.93
2023-04-13T19:12:49.789Z,1.00
2023-04-13T19:15:17.998Z,0.90
2023-04-13T19:17:45.443Z,1.00
2023-04-13T19:20:13.174Z,0.90
2023-04-13T19:22:40.209Z,0.80
2023-04-13T19:25:14.077Z,1.00
2023-04-13T19:27:43.303Z,1.07
2023-04-13T19:30:14.335Z,0.90
2023-04-13T19:32:43.571Z,1.00
2023-04-13T19:35:12.855Z,1.00
2023-04-13T19:37:40.564Z,0.83
2023-04-13T19:40:14.152Z,1.00
2023-04-13T19:42:43.141Z,0.90
2023-04-13T19:45:10.790Z,1.13
2023-04-13T19:47:38.976Z,0.80
2023-04-13T19:50:08.842Z,1.07
2023-04-13T19:52:36.199Z,1.00
2023-04-13T19:55:03.685Z,1.13
2023-04-13T19:57:30.966Z,0.83
2023-04-13T19:59:57.940Z,0.80
2023-04-13T20:02:25.179Z,1.00
2023-04-13T20:04:52.433Z,0.97
2023-04-13T20:07:19.405Z,1.10
2023-04-13T20:09:46.518Z,1.00
2023-04-13T20:12:13.654Z,0.90
2023-04-13T20:14:42.311Z,1.10
2023-04-13T20:17:09.747Z,0.90
2023-04-13T20:19:36.967Z,1.03
2023-04-13T20:22:04.894Z,1.13
2023-04-13T20:24:32.190Z,0.93
2023-04-13T20:26:59.196Z,1.20
2023-04-13T20:29:27.587Z,0.90
2023-04-13T20:31:55.015Z,1.10
2023-04-13T20:34:22.282Z,0.90
2023-04-13T20:36:49.356Z,1.40
2023-04-13T20:39:22.036Z,1.00
2023-04-13T20:41:54.680Z,0.93
2023-04-13T20:44:24.754Z,1.10
2023-04-13T20:46:55.135Z,1.30
2023-04-13T20:49:23.477Z,1.00
2023-04-13T20:51:57.354Z,1.10
2023-04-13T20:54:24.795Z,1.20
2023-04-13T20:56:52.064Z,1.10
2023-04-13T20:59:19.372Z,1.10
2023-04-13T21:01:46.643Z,1.00
2023-04-13T21:04:13.692Z,1.17
2023-04-13T21:06:40.769Z,1.00
2023-04-13T21:09:08.725Z,1.10
2023-04-13T21:11:36.071Z,1.37
2023-04-13T21:14:03.972Z,1.13
2023-04-13T21:16:31.510Z,1.00
2023-04-13T21:18:58.589Z,1.40
2023-04-13T21:21:26.956Z,1.40
2023-04-13T21:23:54.762Z,1.30
2023-04-13T21:26:21.824Z,1.53
2023-04-13T21:28:48.905Z,1.20
2023-04-13T21:31:16.757Z,0.90
2023-04-13T21:33:44.018Z,1.13
2023-04-13T21:38:41.688Z,1.20
2023-04-13T21:41:16.081Z,1.00
2023-04-13T21:43:43.315Z,1.03
2023-04-13T21:46:12.499Z,1.10
2023-04-13T21:48:39.980Z,1.10
2023-04-13T21:51:08.099Z,1.20
2023-04-13T21:53:36.123Z,1.30
2023-04-13T21:56:03.577Z,1.10
2023-04-13T21:58:45.396Z,1.20
2023-04-13T22:01:13.702Z,1.17
2023-04-13T22:03:43.052Z,1.00
2023-04-13T22:06:11.478Z,1.00
2023-04-13T22:08:39.307Z,1.13
2023-04-13T22:11:06.962Z,1.10
2023-04-13T22:13:34.015Z,1.00
2023-04-13T22:16:01.238Z,1.10
2023-04-13T22:18:28.173Z,1.10
2023-04-13T22:20:55.270Z,1.10
2023-04-13T22:23:22.241Z,1.17
2023-04-13T22:26:00.877Z,1.10
2023-04-13T22:28:28.862Z,1.00
2023-04-13T22:30:55.902Z,1.00
2023-04-13T22:33:23.139Z,1.10
2023-04-13T22:35:53.176Z,1.10
2023-04-13T22:38:20.187Z,1.03
2023-04-13T22:40:47.172Z,1.27
2023-04-13T22:43:14.183Z,1.20
2023-04-13T22:45:41.277Z,1.10
2023-04-13T22:48:08.286Z,1.20
2023-04-13T22:50:37.918Z,1.10
2023-04-13T22:53:05.368Z,1.30
2023-04-13T22:55:32.378Z,1.00
2023-04-13T22:57:59.329Z,1.23
2023-04-13T23:00:26.400Z,1.20
2023-04-13T23:02:55.993Z,1.10
2023-04-13T23:05:23.582Z,1.10
2023-04-13T23:07:51.022Z,1.10
2023-04-13T23:10:18.177Z,1.00
2023-04-13T23:12:46.130Z,1.17
2023-04-13T23:15:14.287Z,1.20
2023-04-13T23:17:41.384Z,1.10
2023-04-13T23:20:08.813Z,1.00
2023-04-13T23:22:35.853Z,1.43
2023-04-13T23:25:02.841Z,1.10
2023-04-13T23:27:29.904Z,1.20
2023-04-13T23:29:56.816Z,1.20
2023-04-13T23:32:24.266Z,1.03
2023-04-13T23:34:51.447Z,1.20
2023-04-13T23:37:18.473Z,1.20
2023-04-13T23:39:45.446Z,1.30
2023-04-13T23:42:12.519Z,1.30
2023-04-13T23:44:39.509Z,1.20
2023-04-13T23:47:06.746Z,1.10
2023-04-13T23:49:33.797Z,1.13
2023-04-13T23:52:00.987Z,1.30
2023-04-13T23:54:27.943Z,1.27
2023-04-13T23:56:54.944Z,1.13
2023-04-13T23:59:22.889Z,1.20
